Terminal Aerodrome Forecast
Issued by NWS

Home | Current Version | Previous Version | Text Only | Print | Product List | Glossary On
Versions: 1 2 3 4 5 6 7 8 9 10 11 12 13
000
FTUS43 KDTX 222320
TAFMBS
TAF
KMBS 222320Z 2300/2324 11010KT P6SM SCT040 BKN100
     FM230200 11010KT P6SM BKN035 OVC050
     FM230600 09011KT 3SM -RA BR OVC018
      TEMPO 2310/2313 2SM -RA BR OVC008
     FM231600 17008KT 4SM BR OVC010=

USA.gov is the U.S. government's official web portal to all federal, state and local government web resources and services.